Impacts TAF Board INFO
FOR SITUATIONAL AWARENESS. NOT TO BE USED FOR FLIGHT PLANNING PURPOSES.
IDs:

KBWI - Baltimore-Washington, MD, US

Issued at 1738 UTC 16 Aug 2018
Updated at 2019 UTC 16 Aug 2018
Potential Impact None Slight Moderate High
Time1954Z 16/21Z 16/22Z 16/23Z 17/00Z 17/01Z 17/02Z 17/03Z 17/04Z 17/05Z 17/06Z 17/07Z 17/08Z 17/09Z>>
Type OBS PRVL PRVL PRVL PRVL PRVL PRVL PRVL PRVL PRVL PRVL PRVL PRVL PRVL
VIS 10 >6 >6 >6 >6 >6 >6 >6 >6 >6 >6 >6 >6 >6
CIG 160 250 250 250 250 250 250 250 250 250 250 250 250 250
Cover BKN BKN BKN BKN BKN BKN BKN BKN BKN BKN BKN BKN BKN BKN
FltCat VFR VFR VFR VFR VFR VFR VFR VFR VFR VFR VFR VFR VFR VFR
WX -- -- -- -- -- -- -- -- -- -- -- -- -- --
WDir 200 180 180 180 180 180 180 180 180 180 180 180 180 180
WSpd 5 6 6 6 4 4 4 4 4 4 4 4 4 4
WGst -- -- -- -- -- -- -- -- -- -- -- -- -- --

Raw TAF
KBWI 161738Z 1618/1724 18006KT P6SM SCT050 BKN250
  FM170000 18004KT P6SM FEW070 BKN250
  FM171600 21007KT P6SM SCT090 BKN250


Raw METAR
KBWI 161954Z 20005KT 10SM SCT050 BKN160 BKN250 33/22 A3006 RMK AO2 SLP177 T03280217
KBWI 161854Z 26008KT 10SM SCT055TCU SCT110 SCT160 BKN250 33/21 A3008 RMK AO2 SLP183 TCU ALQDS T03280206
KBWI 161754Z 20006KT 10SM SCT050TCU SCT160 BKN250 33/21 A3009 RMK AO2 SLP187 TCU ALQDS T03280206 10328 20228 56007

METAR Board
Radar Display
Forecast Discussion

FOR SITUATIONAL AWARENESS. NOT TO BE USED FOR FLIGHT PLANNING PURPOSES.